Time;durP1;ratioP1;P1;durP2;ratioP2;P2;SDS_P1;SDS_P2;PMS_P1;PMS_P2;Temp;Humidity;BMP_temperature;BMP_pressure;BME280_temperature;BME280_humidity;BME280_pressure;Samples;Min_cycle;Max_cycle;Signal;HPM_P1;HPM_P2
2024/04/05 00:01:02;;;;;;;13.93;3.10;;;;;;;;;;7322509;19;20304;-43
2024/04/05 00:03:27;;;;;;;12.18;2.80;;;;;;;;;;7343577;19;20323;-43
2024/04/05 00:05:52;;;;;;;12.33;2.50;;;;;;;;;;7321694;19;20329;-45
2024/04/05 00:08:18;;;;;;;8.50;2.60;;;;;;;;;;7343180;19;20317;-47
2024/04/05 00:10:43;;;;;;;8.67;2.63;;;;;;;;;;7321754;19;20885;-45
2024/04/05 00:13:09;;;;;;;9.20;2.70;;;;;;;;;;7343954;19;20297;-43
2024/04/05 00:15:37;;;;;;;12.82;2.78;;;;;;;;;;7334498;19;20414;-42
2024/04/05 00:18:03;;;;;;;11.73;2.70;;;;;;;;;;7343233;19;20313;-45
2024/04/05 00:20:28;;;;;;;11.40;3.00;;;;;;;;;;7344365;19;20325;-42
2024/04/05 00:22:54;;;;;;;13.40;3.17;;;;;;;;;;7321614;19;20282;-41
2024/04/05 00:25:19;;;;;;;11.83;3.30;;;;;;;;;;7344648;19;20912;-45
2024/04/05 00:27:44;;;;;;;14.17;2.73;;;;;;;;;;7321156;19;20341;-43
2024/04/05 00:30:10;;;;;;;12.65;3.58;;;;;;;;;;7343608;19;20848;-43
2024/04/05 00:32:36;;;;;;;11.40;2.80;;;;;;;;;;7321078;19;20415;-44
2024/04/05 00:35:01;;;;;;;17.93;2.80;;;;;;;;;;7343228;19;20856;-42
2024/04/05 00:37:27;;;;;;;10.68;2.88;;;;;;;;;;7343166;19;20340;-41
2024/04/05 00:39:52;;;;;;;13.27;3.13;;;;;;;;;;7321929;19;20317;-42
2024/04/05 00:42:18;;;;;;;13.53;3.10;;;;;;;;;;7343139;19;20405;-43
2024/04/05 00:44:43;;;;;;;15.23;3.63;;;;;;;;;;7326620;19;20752;-45
2024/04/05 00:47:08;;;;;;;12.53;3.70;;;;;;;;;;7349987;19;20398;-47
2024/04/05 00:49:34;;;;;;;14.33;3.50;;;;;;;;;;7343103;19;20869;-39
2024/04/05 00:52:00;;;;;;;11.75;3.40;;;;;;;;;;7336565;19;20296;-44
2024/04/05 00:54:25;;;;;;;12.75;4.43;;;;;;;;;;7349352;19;20415;-43
2024/04/05 00:56:50;;;;;;;15.10;3.70;;;;;;;;;;7327836;19;20341;-44
2024/04/05 00:59:16;;;;;;;14.33;4.20;;;;;;;;;;7350204;19;20320;-43
2024/04/05 01:01:42;;;;;;;13.23;3.92;;;;;;;;;;7328067;19;20416;-41
2024/04/05 01:04:09;;;;;;;18.63;3.92;;;;;;;;;;7348850;19;20296;-44
2024/04/05 01:06:34;;;;;;;12.27;4.00;;;;;;;;;;7336032;19;20316;-42
2024/04/05 01:09:00;;;;;;;19.50;4.70;;;;;;;;;;7345298;19;20303;-42
2024/04/05 01:11:25;;;;;;;18.57;4.87;;;;;;;;;;7349534;19;20321;-46
2024/04/05 01:13:51;;;;;;;14.33;4.90;;;;;;;;;;7327478;19;20324;-45
2024/04/05 01:16:17;;;;;;;14.68;4.32;;;;;;;;;;7349843;19;21148;-41
2024/04/05 01:18:43;;;;;;;19.40;4.90;;;;;;;;;;7325868;19;20346;-46
2024/04/05 01:21:08;;;;;;;17.08;3.90;;;;;;;;;;7350093;19;20314;-47
2024/04/05 01:23:40;;;;;;;18.53;4.57;;;;;;;;;;7346085;19;20320;-38
2024/04/05 01:26:05;;;;;;;18.43;5.00;;;;;;;;;;7349528;19;20750;-45
2024/04/05 01:28:31;;;;;;;16.90;4.10;;;;;;;;;;7348839;19;20333;-42
2024/04/05 01:30:56;;;;;;;14.97;4.10;;;;;;;;;;7327521;19;20379;-42
2024/04/05 01:33:21;;;;;;;21.50;4.20;;;;;;;;;;7347892;19;20408;-42
2024/04/05 01:35:47;;;;;;;20.88;4.70;;;;;;;;;;7320200;19;20392;-42
2024/04/05 01:38:12;;;;;;;15.77;4.57;;;;;;;;;;7347880;19;20293;-43
2024/04/05 01:40:37;;;;;;;16.92;4.55;;;;;;;;;;7326726;19;20325;-42
2024/04/05 01:43:03;;;;;;;18.10;4.23;;;;;;;;;;7348022;19;20297;-43
2024/04/05 01:45:28;;;;;;;17.67;3.93;;;;;;;;;;7348775;19;20377;-42
2024/04/05 01:47:54;;;;;;;21.75;4.90;;;;;;;;;;7324713;19;20870;-44
2024/04/05 01:50:19;;;;;;;19.20;4.20;;;;;;;;;;7348735;19;20398;-45
2024/04/05 01:52:47;;;;;;;17.50;4.40;;;;;;;;;;7325873;19;20313;-42
2024/04/05 01:55:13;;;;;;;15.52;4.10;;;;;;;;;;7347477;19;20861;-41
2024/04/05 01:57:38;;;;;;;21.88;3.97;;;;;;;;;;7325534;19;20343;-42
2024/04/05 02:00:05;;;;;;;19.90;3.70;;;;;;;;;;7347809;19;20297;-42
2024/04/05 02:02:30;;;;;;;20.25;4.47;;;;;;;;;;7347600;19;20325;-41
2024/04/05 02:04:56;;;;;;;23.60;4.53;;;;;;;;;;7326736;19;20643;-43
2024/04/05 02:07:22;;;;;;;18.43;4.10;;;;;;;;;;7347877;19;20358;-42
2024/04/05 02:09:48;;;;;;;23.08;4.13;;;;;;;;;;7326186;19;20659;-43
2024/04/05 02:12:13;;;;;;;20.08;4.60;;;;;;;;;;7347337;19;20296;-44
2024/04/05 02:14:38;;;;;;;21.97;3.83;;;;;;;;;;7324405;19;20332;-43
2024/04/05 02:17:04;;;;;;;16.35;4.03;;;;;;;;;;7347219;19;20372;-44
2024/04/05 02:19:29;;;;;;;17.83;4.10;;;;;;;;;;7347508;19;20320;-45
2024/04/05 02:21:54;;;;;;;16.67;4.10;;;;;;;;;;7325924;19;20321;-42
2024/04/05 02:24:20;;;;;;;22.27;4.53;;;;;;;;;;7347341;19;20681;-41
2024/04/05 02:26:46;;;;;;;18.37;4.30;;;;;;;;;;7324986;19;20897;-45
2024/04/05 02:29:11;;;;;;;19.10;4.67;;;;;;;;;;7347703;19;20293;-43
2024/04/05 02:31:37;;;;;;;23.38;4.90;;;;;;;;;;7324874;19;20324;-47
2024/04/05 02:34:03;;;;;;;21.23;4.80;;;;;;;;;;7346358;19;20296;-43
2024/04/05 02:36:29;;;;;;;21.85;4.30;;;;;;;;;;7347035;19;20345;-48
2024/04/05 02:38:54;;;;;;;22.55;4.05;;;;;;;;;;7324636;19;20290;-44
2024/04/05 02:41:20;;;;;;;24.45;4.50;;;;;;;;;;7347715;19;20356;-42
2024/04/05 02:43:45;;;;;;;23.20;4.20;;;;;;;;;;7324322;19;20324;-43
2024/04/05 02:46:11;;;;;;;21.10;4.22;;;;;;;;;;7347245;19;20300;-42
2024/04/05 02:48:36;;;;;;;26.60;4.50;;;;;;;;;;7323033;19;20705;-41
2024/04/05 02:51:02;;;;;;;22.27;4.47;;;;;;;;;;7346613;19;20655;-43
2024/04/05 02:53:27;;;;;;;24.00;4.40;;;;;;;;;;7345764;19;20367;-43
2024/04/05 02:55:53;;;;;;;23.63;5.00;;;;;;;;;;7324536;19;21432;-45
2024/04/05 02:58:18;;;;;;;20.83;4.37;;;;;;;;;;7345927;19;20416;-42
2024/04/05 03:00:45;;;;;;;21.48;4.03;;;;;;;;;;7324193;19;20852;-42
2024/04/05 03:03:11;;;;;;;21.88;4.00;;;;;;;;;;7345634;19;20707;-44
2024/04/05 03:05:36;;;;;;;23.00;4.82;;;;;;;;;;7323259;19;20397;-42
2024/04/05 03:08:02;;;;;;;25.50;4.80;;;;;;;;;;7343970;19;20299;-43
2024/04/05 03:10:29;;;;;;;29.47;5.07;;;;;;;;;;7346059;19;20383;-43
2024/04/05 03:12:55;;;;;;;25.23;4.63;;;;;;;;;;7323912;19;20365;-43
2024/04/05 03:15:20;;;;;;;25.70;5.10;;;;;;;;;;7345903;19;20329;-41
2024/04/05 03:17:45;;;;;;;22.27;5.70;;;;;;;;;;7323041;19;20345;-41
2024/04/05 03:20:14;;;;;;;27.70;5.27;;;;;;;;;;7345718;19;20320;-42
2024/04/05 03:22:39;;;;;;;30.52;4.95;;;;;;;;;;7323262;19;20332;-42
2024/04/05 03:25:05;;;;;;;26.55;4.93;;;;;;;;;;7345412;19;20319;-45
2024/04/05 03:27:30;;;;;;;24.42;4.68;;;;;;;;;;7344755;19;20353;-41
2024/04/05 03:29:56;;;;;;;30.30;4.77;;;;;;;;;;7324837;19;20293;-42
2024/04/05 03:32:21;;;;;;;27.42;4.90;;;;;;;;;;7344471;19;20404;-43
2024/04/05 03:34:47;;;;;;;25.47;4.97;;;;;;;;;;7323151;19;20337;-42
2024/04/05 03:37:12;;;;;;;26.53;5.07;;;;;;;;;;7345150;19;20372;-45
2024/04/05 03:39:38;;;;;;;21.30;4.78;;;;;;;;;;7323268;19;20325;-42
2024/04/05 03:42:03;;;;;;;30.80;5.80;;;;;;;;;;7344104;19;20368;-42
2024/04/05 03:44:29;;;;;;;26.00;4.57;;;;;;;;;;7345116;19;20325;-42
2024/04/05 03:46:54;;;;;;;28.67;5.47;;;;;;;;;;7323376;19;20363;-44
2024/04/05 03:49:19;;;;;;;31.73;5.33;;;;;;;;;;7343766;19;20349;-45
2024/04/05 03:51:45;;;;;;;29.80;6.05;;;;;;;;;;7322711;19;20941;-44
2024/04/05 03:54:10;;;;;;;29.00;5.20;;;;;;;;;;7344378;19;20314;-45
2024/04/05 03:56:36;;;;;;;27.23;5.18;;;;;;;;;;7322073;19;20961;-42
2024/04/05 03:59:01;;;;;;;30.20;4.47;;;;;;;;;;7344491;19;20368;-40
2024/04/05 04:01:26;;;;;;;35.50;5.78;;;;;;;;;;7343835;19;20313;-44
2024/04/05 04:03:52;;;;;;;30.83;5.90;;;;;;;;;;7321444;19;20341;-42
2024/04/05 04:06:17;;;;;;;26.00;4.57;;;;;;;;;;7344528;19;20448;-42
2024/04/05 04:08:42;;;;;;;33.43;5.70;;;;;;;;;;7321805;19;20404;-45
2024/04/05 04:11:08;;;;;;;29.23;4.23;;;;;;;;;;7344534;19;20317;-43
2024/04/05 04:13:33;;;;;;;23.58;4.65;;;;;;;;;;7343442;19;20324;-41
2024/04/05 04:15:59;;;;;;;26.33;4.43;;;;;;;;;;7323276;19;20301;-43
2024/04/05 04:18:25;;;;;;;25.60;5.20;;;;;;;;;;7343715;19;20335;-45
2024/04/05 04:20:51;;;;;;;20.05;4.47;;;;;;;;;;7321808;19;20667;-43
2024/04/05 04:23:17;;;;;;;25.77;5.40;;;;;;;;;;7343300;19;20328;-45
2024/04/05 04:25:42;;;;;;;25.00;4.27;;;;;;;;;;7321673;19;20404;-42
2024/04/05 04:28:08;;;;;;;25.63;4.90;;;;;;;;;;7343541;19;20317;-42
2024/04/05 04:30:33;;;;;;;30.38;4.80;;;;;;;;;;7343602;19;20412;-44
2024/04/05 04:32:59;;;;;;;26.53;5.47;;;;;;;;;;7322222;19;20736;-44
2024/04/05 04:35:25;;;;;;;29.93;4.40;;;;;;;;;;7344196;19;20340;-42
2024/04/05 04:37:52;;;;;;;29.33;5.37;;;;;;;;;;7321506;19;20442;-45
2024/04/05 04:40:18;;;;;;;29.30;4.60;;;;;;;;;;7343716;19;20678;-42
2024/04/05 04:42:43;;;;;;;24.30;4.57;;;;;;;;;;7320321;19;20325;-42
2024/04/05 04:45:10;;;;;;;33.43;6.27;;;;;;;;;;7343706;19;20372;-42
2024/04/05 04:47:36;;;;;;;30.73;5.20;;;;;;;;;;7319097;19;20416;-43
2024/04/05 04:50:03;;;;;;;19.53;4.10;;;;;;;;;;7342834;19;20733;-42
2024/04/05 04:52:29;;;;;;;28.83;4.47;;;;;;;;;;7342861;19;20329;-44
2024/04/05 04:54:56;;;;;;;26.45;4.70;;;;;;;;;;7321232;19;20286;-42
2024/04/05 04:57:22;;;;;;;30.83;4.88;;;;;;;;;;7343140;19;20901;-45
2024/04/05 04:59:47;;;;;;;29.88;4.47;;;;;;;;;;7320802;19;20345;-42
2024/04/05 05:02:13;;;;;;;36.90;6.00;;;;;;;;;;7342458;19;20297;-42
2024/04/05 05:04:38;;;;;;;33.60;5.67;;;;;;;;;;7315246;19;20360;-42
2024/04/05 05:07:06;;;;;;;21.23;4.23;;;;;;;;;;7342514;19;20328;-43
2024/04/05 05:09:32;;;;;;;25.70;4.30;;;;;;;;;;7342662;19;20333;-41
2024/04/05 05:11:58;;;;;;;27.48;4.82;;;;;;;;;;7321078;19;20371;-42
2024/04/05 05:14:25;;;;;;;23.35;4.80;;;;;;;;;;7342518;19;20341;-43
2024/04/05 05:16:51;;;;;;;24.52;5.20;;;;;;;;;;7320322;19;20321;-43
2024/04/05 05:19:16;;;;;;;30.37;4.83;;;;;;;;;;7341544;19;20336;-40
2024/04/05 05:21:41;;;;;;;22.75;5.07;;;;;;;;;;7320030;19;20332;-41
2024/04/05 05:24:07;;;;;;;26.80;4.50;;;;;;;;;;7341285;19;20379;-41
2024/04/05 05:26:32;;;;;;;25.17;4.83;;;;;;;;;;7342486;19;20367;-41
2024/04/05 05:28:58;;;;;;;22.03;4.20;;;;;;;;;;7319616;19;20663;-44
2024/04/05 05:31:23;;;;;;;28.17;4.90;;;;;;;;;;7349009;19;20396;-45
2024/04/05 05:33:49;;;;;;;25.92;4.63;;;;;;;;;;7326009;19;20972;-43
2024/04/05 05:36:14;;;;;;;21.10;4.47;;;;;;;;;;7349173;19;20292;-42
2024/04/05 05:38:39;;;;;;;19.53;4.17;;;;;;;;;;7325861;19;20317;-43
2024/04/05 05:41:05;;;;;;;22.75;4.28;;;;;;;;;;7348350;19;20334;-42
2024/04/05 05:43:30;;;;;;;23.13;4.67;;;;;;;;;;7347875;19;20337;-41
2024/04/05 05:45:55;;;;;;;29.70;4.60;;;;;;;;;;7326619;19;20308;-43
2024/04/05 05:48:21;;;;;;;26.47;4.87;;;;;;;;;;7346097;19;20394;-43
2024/04/05 05:50:46;;;;;;;28.77;4.60;;;;;;;;;;7326630;19;20324;-44
2024/04/05 05:53:12;;;;;;;22.90;4.70;;;;;;;;;;7347687;19;20321;-43
2024/04/05 05:55:37;;;;;;;26.63;4.60;;;;;;;;;;7325309;19;20378;-42
2024/04/05 05:58:03;;;;;;;27.17;4.50;;;;;;;;;;7346982;19;20295;-42
2024/04/05 06:00:29;;;;;;;24.38;4.15;;;;;;;;;;7347625;19;20320;-44
2024/04/05 06:02:55;;;;;;;24.15;5.00;;;;;;;;;;7325933;19;20282;-43
2024/04/05 06:05:23;;;;;;;26.10;4.20;;;;;;;;;;7348271;19;20325;-42
2024/04/05 06:07:49;;;;;;;24.90;4.93;;;;;;;;;;7325926;19;20348;-46
2024/04/05 06:10:15;;;;;;;31.52;5.38;;;;;;;;;;7347933;19;20292;-44
2024/04/05 06:12:41;;;;;;;21.23;4.20;;;;;;;;;;7324832;19;20340;-43
2024/04/05 06:15:07;;;;;;;18.95;4.22;;;;;;;;;;7347072;19;20828;-42
2024/04/05 06:17:35;;;;;;;18.70;4.20;;;;;;;;;;7346835;19;20378;-42
2024/04/05 06:20:01;;;;;;;20.45;3.95;;;;;;;;;;7326625;19;20293;-42
2024/04/05 06:22:29;;;;;;;30.67;4.90;;;;;;;;;;7346975;19;20323;-42
2024/04/05 06:24:55;;;;;;;28.50;4.90;;;;;;;;;;7325759;19;20336;-40
2024/04/05 06:27:20;;;;;;;29.20;4.77;;;;;;;;;;7347016;19;20999;-43
2024/04/05 06:29:53;;;;;;;21.70;5.00;;;;;;;;;;7324946;19;20321;-42
2024/04/05 06:32:18;;;;;;;32.47;5.00;;;;;;;;;;7346760;19;20914;-43
2024/04/05 06:34:44;;;;;;;24.87;5.17;;;;;;;;;;7324635;19;20361;-43
2024/04/05 06:37:11;;;;;;;22.92;4.22;;;;;;;;;;7346679;19;20317;-40
2024/04/05 06:39:36;;;;;;;26.63;4.30;;;;;;;;;;7324352;19;21203;-42
2024/04/05 06:42:01;;;;;;;25.27;4.50;;;;;;;;;;7343200;19;20301;-44
2024/04/05 06:44:31;;;;;;;23.10;4.23;;;;;;;;;;7346382;19;20321;-43
2024/04/05 06:46:57;;;;;;;24.38;4.85;;;;;;;;;;7324495;19;20405;-42
2024/04/05 06:49:23;;;;;;;22.35;4.13;;;;;;;;;;7345058;19;20328;-44
2024/04/05 06:51:48;;;;;;;21.70;4.50;;;;;;;;;;7324660;19;20348;-42
2024/04/05 06:54:16;;;;;;;31.00;5.53;;;;;;;;;;7343346;19;20313;-42
2024/04/05 06:56:41;;;;;;;26.88;4.55;;;;;;;;;;7316063;19;20348;-42
2024/04/05 06:59:07;;;;;;;28.23;4.40;;;;;;;;;;7342416;19;20296;-42
2024/04/05 07:01:32;;;;;;;27.58;8.77;;;;;;;;;;7346566;19;20332;-45
2024/04/05 07:03:58;;;;;;;35.08;9.90;;;;;;;;;;7323355;19;20406;-44
2024/04/05 07:06:23;;;;;;;31.03;9.43;;;;;;;;;;7345978;19;20327;-43
2024/04/05 07:08:49;;;;;;;44.90;12.20;;;;;;;;;;7322516;19;20323;-44
2024/04/05 07:11:14;;;;;;;41.57;11.33;;;;;;;;;;7345890;19;20300;-42
2024/04/05 07:13:40;;;;;;;41.93;11.97;;;;;;;;;;7320978;19;20336;-44
2024/04/05 07:16:06;;;;;;;50.90;17.73;;;;;;;;;;7345223;19;20316;-41
2024/04/05 07:18:32;;;;;;;27.10;5.10;;;;;;;;;;7343734;19;20313;-40
2024/04/05 07:21:00;;;;;;;34.83;10.57;;;;;;;;;;7322466;19;20301;-42
2024/04/05 07:23:25;;;;;;;35.30;10.63;;;;;;;;;;7345006;19;20348;-42
2024/04/05 07:25:51;;;;;;;42.47;12.20;;;;;;;;;;7323531;19;20329;-43
2024/04/05 07:28:16;;;;;;;54.95;17.70;;;;;;;;;;7345035;19;20303;-41
2024/04/05 07:30:42;;;;;;;30.70;7.67;;;;;;;;;;7322460;19;20331;-43
2024/04/05 07:33:08;;;;;;;37.30;9.80;;;;;;;;;;7344279;19;20297;-42
2024/04/05 07:35:33;;;;;;;28.77;8.70;;;;;;;;;;7344387;19;20388;-42
2024/04/05 07:37:59;;;;;;;28.67;8.90;;;;;;;;;;7323185;19;20713;-41
2024/04/05 07:40:25;;;;;;;23.00;5.33;;;;;;;;;;7345550;19;20333;-42
2024/04/05 07:42:51;;;;;;;22.88;7.03;;;;;;;;;;7322274;19;20316;-43
2024/04/05 07:45:17;;;;;;;26.15;5.55;;;;;;;;;;7345207;19;20349;-42
2024/04/05 07:47:42;;;;;;;24.55;6.57;;;;;;;;;;7319156;19;20687;-43
2024/04/05 07:50:08;;;;;;;30.65;8.32;;;;;;;;;;7343246;19;20686;-44
2024/04/05 07:52:33;;;;;;;30.38;8.60;;;;;;;;;;7342775;19;20876;-41
2024/04/05 07:54:59;;;;;;;28.80;7.87;;;;;;;;;;7322232;19;20339;-43
2024/04/05 07:57:24;;;;;;;28.23;6.30;;;;;;;;;;7342982;19;20967;-41
2024/04/05 07:59:49;;;;;;;25.53;6.30;;;;;;;;;;7317418;19;20335;-42
2024/04/05 08:02:15;;;;;;;30.67;8.87;;;;;;;;;;7342293;19;20300;-42
2024/04/05 08:04:40;;;;;;;27.80;6.03;;;;;;;;;;7321668;19;20695;-42
2024/04/05 08:07:06;;;;;;;23.70;5.77;;;;;;;;;;7343656;19;20293;-44
2024/04/05 08:09:31;;;;;;;33.88;6.63;;;;;;;;;;7341461;19;20906;-39
2024/04/05 08:11:56;;;;;;;28.87;5.70;;;;;;;;;;7319131;19;20372;-44
2024/04/05 08:14:23;;;;;;;23.48;6.30;;;;;;;;;;7341597;19;21169;-42
2024/04/05 08:16:48;;;;;;;22.00;6.30;;;;;;;;;;7321281;19;20324;-46
2024/04/05 08:19:14;;;;;;;24.80;5.35;;;;;;;;;;7343047;19;20559;-44
2024/04/05 08:21:40;;;;;;;25.80;6.28;;;;;;;;;;7320902;19;20328;-44
2024/04/05 08:24:05;;;;;;;22.05;5.50;;;;;;;;;;7342232;19;20848;-43
2024/04/05 08:26:31;;;;;;;21.10;6.10;;;;;;;;;;7343370;19;20317;-41
2024/04/05 08:28:57;;;;;;;21.42;5.68;;;;;;;;;;7320473;19;20403;-42
2024/04/05 08:31:22;;;;;;;22.33;5.90;;;;;;;;;;7343833;19;20321;-44
2024/04/05 08:33:48;;;;;;;27.23;7.57;;;;;;;;;;7320022;19;20798;-43
2024/04/05 08:36:13;;;;;;;30.40;8.90;;;;;;;;;;7340413;19;20333;-43
2024/04/05 08:38:39;;;;;;;44.40;15.80;;;;;;;;;;7316911;19;20344;-42
2024/04/05 08:41:08;;;;;;;32.20;9.20;;;;;;;;;;7341826;19;20369;-43
2024/04/05 08:43:36;;;;;;;23.57;7.33;;;;;;;;;;7342318;19;20344;-40
2024/04/05 08:46:01;;;;;;;32.65;8.07;;;;;;;;;;7321480;19;20321;-40
2024/04/05 08:48:29;;;;;;;20.23;6.00;;;;;;;;;;7340854;19;20693;-42
2024/04/05 08:50:55;;;;;;;23.48;6.53;;;;;;;;;;7321552;19;20286;-43
2024/04/05 08:53:20;;;;;;;25.80;5.95;;;;;;;;;;7342120;19;20300;-42
2024/04/05 08:55:46;;;;;;;22.47;5.73;;;;;;;;;;7320000;19;20324;-40
2024/04/05 08:58:13;;;;;;;29.83;7.60;;;;;;;;;;7342862;19;20292;-47
2024/04/05 09:00:39;;;;;;;52.28;18.00;;;;;;;;;;7319192;19;20735;-42
2024/04/05 09:03:05;;;;;;;22.05;5.93;;;;;;;;;;7339775;19;20384;-43
2024/04/05 09:05:31;;;;;;;24.95;5.13;;;;;;;;;;7348011;19;20324;-45
2024/04/05 09:08:05;;;;;;;25.40;5.60;;;;;;;;;;7327014;19;20300;-45
2024/04/05 09:10:31;;;;;;;19.27;5.00;;;;;;;;;;7348589;19;20978;-40
2024/04/05 09:12:57;;;;;;;31.40;10.90;;;;;;;;;;7324059;19;20337;-43
2024/04/05 09:15:26;;;;;;;20.43;6.20;;;;;;;;;;7348625;19;20407;-44
2024/04/05 09:17:53;;;;;;;32.38;11.00;;;;;;;;;;7326076;19;20333;-42
2024/04/05 09:20:24;;;;;;;22.20;6.07;;;;;;;;;;7342900;19;20321;-45
2024/04/05 09:22:57;;;;;;;20.85;5.40;;;;;;;;;;7325902;19;20317;-45
2024/04/05 09:25:23;;;;;;;20.88;5.07;;;;;;;;;;7349175;19;20309;-43
2024/04/05 09:27:48;;;;;;;22.00;6.10;;;;;;;;;;7326032;19;20376;-46
2024/04/05 09:30:15;;;;;;;15.70;4.17;;;;;;;;;;7348768;19;20293;-45
2024/04/05 09:32:40;;;;;;;18.38;4.40;;;;;;;;;;7325772;19;20322;-46
2024/04/05 09:35:08;;;;;;;18.13;4.70;;;;;;;;;;7348402;19;20307;-43
2024/04/05 09:37:34;;;;;;;17.05;4.20;;;;;;;;;;7347892;19;20348;-44
2024/04/05 09:40:01;;;;;;;16.20;3.90;;;;;;;;;;7327531;19;20367;-46
2024/04/05 09:42:26;;;;;;;16.38;4.57;;;;;;;;;;7348270;19;20832;-44
2024/04/05 09:44:55;;;;;;;20.90;5.20;;;;;;;;;;7326607;19;20331;-45
2024/04/05 09:47:25;;;;;;;21.20;6.13;;;;;;;;;;7347796;19;21177;-43
2024/04/05 09:49:51;;;;;;;17.33;4.40;;;;;;;;;;7325573;19;20339;-45
2024/04/05 09:52:20;;;;;;;19.83;4.60;;;;;;;;;;7346892;19;20309;-43
2024/04/05 09:54:46;;;;;;;18.00;4.15;;;;;;;;;;7325813;19;20900;-44
2024/04/05 09:57:13;;;;;;;15.02;4.30;;;;;;;;;;7347270;19;20297;-46
2024/04/05 09:59:40;;;;;;;22.63;4.75;;;;;;;;;;7325516;19;20317;-47
2024/04/05 10:02:07;;;;;;;20.90;5.45;;;;;;;;;;7346783;19;21198;-43
2024/04/05 10:04:36;;;;;;;18.33;4.70;;;;;;;;;;7347318;19;20325;-45
2024/04/05 10:07:05;;;;;;;16.43;4.30;;;;;;;;;;7326876;19;20311;-43
2024/04/05 10:09:33;;;;;;;14.85;4.07;;;;;;;;;;7347703;19;20328;-45
2024/04/05 10:12:09;;;;;;;18.75;5.82;;;;;;;;;;7325564;19;20307;-50
2024/04/05 10:14:36;;;;;;;17.63;4.20;;;;;;;;;;7345371;19;20332;-40
2024/04/05 10:17:06;;;;;;;17.63;5.90;;;;;;;;;;7346272;19;20299;-43
2024/04/05 10:19:31;;;;;;;14.70;3.60;;;;;;;;;;7347768;19;21089;-46
2024/04/05 10:22:08;;;;;;;16.13;4.27;;;;;;;;;;7325377;19;20376;-45
2024/04/05 10:24:33;;;;;;;12.55;4.30;;;;;;;;;;7347782;19;20321;-46
2024/04/05 10:26:59;;;;;;;15.27;3.70;;;;;;;;;;7324823;19;20929;-46
2024/04/05 10:29:28;;;;;;;14.77;4.40;;;;;;;;;;7347332;19;20914;-45
2024/04/05 10:32:20;;;;;;;14.25;3.30;;;;;;;;;;7323017;19;20336;-45
2024/04/05 10:34:45;;;;;;;16.13;3.80;;;;;;;;;;7324157;19;20321;-46
2024/04/05 10:37:13;;;;;;;15.10;3.70;;;;;;;;;;7345976;19;20364;-46
2024/04/05 10:39:40;;;;;;;10.52;3.17;;;;;;;;;;7324342;19;20320;-44
2024/04/05 10:42:05;;;;;;;13.02;4.55;;;;;;;;;;7345945;19;20642;-43
2024/04/05 10:44:31;;;;;;;29.37;10.13;;;;;;;;;;7346749;19;20325;-48
2024/04/05 10:46:56;;;;;;;16.90;5.10;;;;;;;;;;7324511;19;20388;-49
2024/04/05 10:49:22;;;;;;;19.20;5.53;;;;;;;;;;7344742;19;20325;-44
2024/04/05 10:51:48;;;;;;;17.53;4.77;;;;;;;;;;7324462;19;20723;-45
2024/04/05 10:54:15;;;;;;;14.10;5.00;;;;;;;;;;7344033;19;20372;-45
2024/04/05 10:56:41;;;;;;;12.48;4.35;;;;;;;;;;7323237;19;21218;-46
2024/04/05 10:59:07;;;;;;;15.60;4.50;;;;;;;;;;7342637;19;20888;-47
2024/04/05 11:01:34;;;;;;;13.57;3.92;;;;;;;;;;7345973;19;20354;-41
2024/04/05 11:04:00;;;;;;;12.43;3.58;;;;;;;;;;7324116;19;20853;-45
2024/04/05 11:06:25;;;;;;;9.82;3.40;;;;;;;;;;7346221;19;20328;-44
2024/04/05 11:08:55;;;;;;;15.83;5.27;;;;;;;;;;7322675;19;20324;-44
2024/04/05 11:11:21;;;;;;;11.65;3.35;;;;;;;;;;7341529;19;20357;-47
2024/04/05 11:13:59;;;;;;;16.35;6.47;;;;;;;;;;7315599;19;20871;-43
2024/04/05 11:16:24;;;;;;;9.77;3.20;;;;;;;;;;7343791;19;20329;-47
2024/04/05 11:18:50;;;;;;;9.90;2.90;;;;;;;;;;7320410;19;20875;-45
2024/04/05 11:21:16;;;;;;;10.07;2.55;;;;;;;;;;7344540;19;20321;-42
2024/04/05 11:23:53;;;;;;;11.88;3.25;;;;;;;;;;7321501;19;20332;-43
2024/04/05 11:26:18;;;;;;;13.00;3.50;;;;;;;;;;7344451;19;20324;-48
2024/04/05 11:28:45;;;;;;;9.47;2.97;;;;;;;;;;7320470;19;20967;-48
2024/04/05 11:31:10;;;;;;;13.77;3.72;;;;;;;;;;7344571;19;20320;-48
2024/04/05 11:33:36;;;;;;;9.10;2.50;;;;;;;;;;7328958;19;20402;-44
2024/04/05 11:36:01;;;;;;;10.07;3.00;;;;;;;;;;7340531;19;20297;-45
2024/04/05 11:38:27;;;;;;;8.13;2.40;;;;;;;;;;7344313;19;20473;-43
2024/04/05 11:40:52;;;;;;;13.30;3.70;;;;;;;;;;7321927;19;20376;-45
2024/04/05 11:43:18;;;;;;;12.45;3.17;;;;;;;;;;7344698;19;20297;-46
2024/04/05 11:45:44;;;;;;;13.18;3.28;;;;;;;;;;7321475;19;20316;-44
2024/04/05 11:48:10;;;;;;;12.90;3.60;;;;;;;;;;7341503;19;20661;-46
2024/04/05 11:50:35;;;;;;;13.27;3.50;;;;;;;;;;7331439;19;20324;-45
2024/04/05 11:53:02;;;;;;;15.07;4.50;;;;;;;;;;7339573;19;20930;-44
2024/04/05 11:55:27;;;;;;;16.63;3.75;;;;;;;;;;7343441;19;20324;-49
2024/04/05 11:57:53;;;;;;;12.47;3.87;;;;;;;;;;7321764;19;20742;-45
2024/04/05 12:00:18;;;;;;;20.08;4.30;;;;;;;;;;7344196;19;20688;-44
2024/04/05 12:02:44;;;;;;;12.70;4.20;;;;;;;;;;7321257;19;20738;-47
2024/04/05 12:05:09;;;;;;;14.00;4.13;;;;;;;;;;7343358;19;20308;-49
2024/04/05 12:07:34;;;;;;;14.10;4.80;;;;;;;;;;7339922;19;20356;-40
2024/04/05 12:10:00;;;;;;;13.73;4.13;;;;;;;;;;7327140;19;20329;-44
2024/04/05 12:12:29;;;;;;;16.83;5.40;;;;;;;;;;7342281;19;20320;-47
2024/04/05 12:14:55;;;;;;;14.15;4.50;;;;;;;;;;7320873;19;20340;-43
2024/04/05 12:17:21;;;;;;;20.42;5.85;;;;;;;;;;7342590;19;20296;-44
2024/04/05 12:19:49;;;;;;;14.88;5.13;;;;;;;;;;7320668;19;20313;-43
2024/04/05 12:22:15;;;;;;;15.65;5.55;;;;;;;;;;7342427;19;20297;-47
2024/04/05 12:24:40;;;;;;;12.00;4.40;;;;;;;;;;7320538;19;20404;-44
2024/04/05 12:27:06;;;;;;;11.37;4.20;;;;;;;;;;7342036;19;20301;-46
2024/04/05 12:29:31;;;;;;;17.67;5.60;;;;;;;;;;7342992;19;20325;-45
2024/04/05 12:31:57;;;;;;;15.57;4.63;;;;;;;;;;7321025;19;20380;-45
2024/04/05 12:34:23;;;;;;;12.93;4.80;;;;;;;;;;7342314;19;20339;-50
2024/04/05 12:36:50;;;;;;;15.15;5.10;;;;;;;;;;7319630;19;20335;-49
2024/04/05 12:39:29;;;;;;;16.53;5.10;;;;;;;;;;7343359;19;20305;-44
2024/04/05 12:41:54;;;;;;;13.27;4.90;;;;;;;;;;7327801;19;20357;-45
2024/04/05 12:44:20;;;;;;;14.30;5.20;;;;;;;;;;7349044;19;20308;-43
2024/04/05 12:46:45;;;;;;;14.87;4.80;;;;;;;;;;7327951;19;20345;-47
2024/04/05 12:49:11;;;;;;;13.98;4.60;;;;;;;;;;7347810;19;20680;-43
2024/04/05 12:51:36;;;;;;;15.07;5.37;;;;;;;;;;7327877;19;20386;-44
2024/04/05 12:54:02;;;;;;;16.45;5.80;;;;;;;;;;7348440;19;20916;-44
2024/04/05 12:56:29;;;;;;;16.67;6.53;;;;;;;;;;7348305;19;20341;-44
2024/04/05 12:58:54;;;;;;;14.55;5.45;;;;;;;;;;7326970;19;20320;-47
2024/04/05 13:01:19;;;;;;;17.80;5.80;;;;;;;;;;7346578;19;20977;-44
2024/04/05 13:03:45;;;;;;;14.30;5.90;;;;;;;;;;7325903;19;20324;-44
2024/04/05 13:06:12;;;;;;;13.18;4.60;;;;;;;;;;7348714;19;20348;-45
2024/04/05 13:08:38;;;;;;;13.32;4.68;;;;;;;;;;7326239;19;20678;-44
2024/04/05 13:11:04;;;;;;;15.57;4.55;;;;;;;;;;7345803;19;20324;-45
2024/04/05 13:13:33;;;;;;;15.98;4.80;;;;;;;;;;7346383;19;20340;-46
2024/04/05 13:16:01;;;;;;;12.70;4.20;;;;;;;;;;7326992;19;20326;-44
2024/04/05 13:18:27;;;;;;;16.25;4.60;;;;;;;;;;7347896;19;20320;-46
2024/04/05 13:21:05;;;;;;;13.68;5.10;;;;;;;;;;7326571;19;20356;-44
2024/04/05 13:23:51;;;;;;;14.85;4.90;;;;;;;;;;7347823;19;20329;-44
2024/04/05 13:26:20;;;;;;;10.93;4.43;;;;;;;;;;7327581;19;20289;-42
2024/04/05 13:28:49;;;;;;;15.45;5.68;;;;;;;;;;7326576;19;20309;-46
2024/04/05 13:31:14;;;;;;;13.10;5.38;;;;;;;;;;7348367;19;20639;-43
2024/04/05 13:33:40;;;;;;;13.77;5.30;;;;;;;;;;7325933;19;20333;-44
2024/04/05 13:36:09;;;;;;;15.77;6.63;;;;;;;;;;7346730;19;20293;-43
2024/04/05 13:38:34;;;;;;;16.83;6.72;;;;;;;;;;7348114;19;20316;-44
2024/04/05 13:41:00;;;;;;;15.80;6.13;;;;;;;;;;7327823;19;20311;-46
2024/04/05 13:43:26;;;;;;;12.90;4.60;;;;;;;;;;7347824;19;20305;-43
2024/04/05 13:45:51;;;;;;;12.57;4.80;;;;;;;;;;7323789;19;20325;-42
2024/04/05 13:48:16;;;;;;;13.88;4.50;;;;;;;;;;7345742;19;20301;-44
2024/04/05 13:50:42;;;;;;;13.57;4.20;;;;;;;;;;7324956;19;20324;-46
2024/04/05 13:53:07;;;;;;;16.40;6.20;;;;;;;;;;7346961;19;20868;-45
2024/04/05 13:55:33;;;;;;;17.50;7.57;;;;;;;;;;7345659;19;20404;-45
2024/04/05 13:57:59;;;;;;;14.70;4.93;;;;;;;;;;7325626;19;20681;-47
2024/04/05 14:00:24;;;;;;;14.23;5.53;;;;;;;;;;7347989;19;20297;-45
2024/04/05 14:02:50;;;;;;;18.00;6.77;;;;;;;;;;7324761;19;20328;-42
2024/04/05 14:05:15;;;;;;;12.10;4.50;;;;;;;;;;7347329;19;20391;-46
2024/04/05 14:07:41;;;;;;;11.40;4.20;;;;;;;;;;7324763;19;20357;-47
2024/04/05 14:10:06;;;;;;;14.20;5.10;;;;;;;;;;7346734;19;20301;-42
2024/04/05 14:12:33;;;;;;;14.05;4.50;;;;;;;;;;7344167;19;20349;-43
2024/04/05 14:14:58;;;;;;;10.05;4.15;;;;;;;;;;7325851;19;20296;-44
2024/04/05 14:17:24;;;;;;;9.27;3.50;;;;;;;;;;7346925;19;20297;-43
2024/04/05 14:19:50;;;;;;;13.93;4.00;;;;;;;;;;7325313;19;20329;-43
2024/04/05 14:22:15;;;;;;;11.20;4.10;;;;;;;;;;7346543;19;20300;-43
2024/04/05 14:24:41;;;;;;;14.60;5.10;;;;;;;;;;7324401;19;20351;-45